Candelaria, Argentina
Current Conditions -  °F | °C
As of 11:00 AM on Saturday 25 Oct 2014 (Local Time) from SACO Reporting Station
Clear Clear  
Wind Chill: 88°   Ceiling: Unl
Heat Index: 88°   Visibility: 6mi
Dew Point: 55°   Wind: 16mph
Humidity: 33%   Direction: 50°NE
Pressure: 29.97"   Gusts: NA
Location:  32.07°S, 65.82°W
Report Text: SACO 251400Z 05014KT CAVOK 31/13 Q1015
Loading
Personal Weather Stations






























Interactive Weather Map
Tropical Storm Tracking
New forecast layout! Learn more

10-Day Weather Forecast

Advertisements
Track Severe Weather on mobile